Time;durP1;ratioP1;P1;durP2;ratioP2;P2;SDS_P1;SDS_P2;PMS_P1;PMS_P2;Temp;Humidity;BMP_temperature;BMP_pressure;BME280_temperature;BME280_humidity;BME280_pressure;Samples;Min_cycle;Max_cycle;Signal;HPM_P1;HPM_P2
2021/04/24 00:00:17;;;;;;;17.10;7.07;;;24.00;52.00;;;;;;5073458;28;20466;-56
2021/04/24 00:02:44;;;;;;;16.95;6.75;;;24.00;52.00;;;;;;5055627;28;20037;-56
2021/04/24 00:05:17;;;;;;;13.52;6.47;;;24.00;52.00;;;;;;5073084;28;20055;-56
2021/04/24 00:07:43;;;;;;;21.65;7.07;;;24.10;52.30;;;;;;5073386;28;20438;-56
2021/04/24 00:10:09;;;;;;;17.88;7.20;;;24.00;52.30;;;;;;5073335;28;20059;-55
2021/04/24 00:12:35;;;;;;;21.00;7.30;;;24.00;52.30;;;;;;5073005;28;20470;-56
2021/04/24 00:15:05;;;;;;;16.85;6.07;;;24.00;52.30;;;;;;5072719;28;20028;-56
2021/04/24 00:17:31;;;;;;;15.27;7.07;;;24.00;52.30;;;;;;5073074;28;20033;-56
2021/04/24 00:19:57;;;;;;;17.52;7.47;;;24.00;52.30;;;;;;5054850;28;20024;-56
2021/04/24 00:22:23;;;;;;;17.17;6.07;;;24.00;52.40;;;;;;5072701;28;20074;-56
2021/04/24 00:24:49;;;;;;;16.33;8.23;;;24.00;52.40;;;;;;5073082;28;20079;-55
2021/04/24 00:27:15;;;;;;;13.27;6.82;;;24.00;52.40;;;;;;5073275;28;20502;-55
2021/04/24 00:29:41;;;;;;;20.80;9.00;;;24.00;52.50;;;;;;5072902;28;20475;-55
2021/04/24 00:32:07;;;;;;;22.40;7.28;;;24.00;52.50;;;;;;5072704;28;20319;-56
2021/04/24 00:34:33;;;;;;;13.20;6.05;;;24.00;52.60;;;;;;5054555;28;20112;-55
2021/04/24 00:36:59;;;;;;;13.63;6.53;;;24.00;52.60;;;;;;5072582;28;20031;-54
2021/04/24 00:39:25;;;;;;;14.38;6.03;;;24.00;52.50;;;;;;5072860;28;20363;-55
2021/04/24 00:41:51;;;;;;;14.82;6.43;;;24.00;52.60;;;;;;5071810;28;20032;-56
2021/04/24 00:44:17;;;;;;;16.25;6.47;;;24.00;52.60;;;;;;5073167;28;20791;-56
2021/04/24 00:46:42;;;;;;;19.02;7.50;;;24.00;52.60;;;;;;5072600;28;20095;-55
2021/04/24 00:49:10;;;;;;;17.88;6.95;;;24.00;52.60;;;;;;5072369;28;20074;-56
2021/04/24 00:51:36;;;;;;;19.23;7.55;;;23.90;52.60;;;;;;5072908;28;20052;-55
2021/04/24 00:54:03;;;;;;;24.10;8.10;;;24.00;52.70;;;;;;5072687;28;20107;-56
2021/04/24 00:56:29;;;;;;;22.10;7.97;;;23.90;52.80;;;;;;5072562;28;20036;-55
2021/04/24 00:58:55;;;;;;;17.92;6.85;;;23.90;52.80;;;;;;5072474;28;20033;-55
2021/04/24 01:01:21;;;;;;;17.52;6.22;;;23.90;52.80;;;;;;5054699;28;20112;-55
2021/04/24 01:03:48;;;;;;;16.02;5.97;;;23.90;52.70;;;;;;5072970;28;20013;-56
2021/04/24 01:06:14;;;;;;;14.73;6.40;;;23.90;52.80;;;;;;5073240;28;20473;-55
2021/04/24 01:08:40;;;;;;;25.17;7.18;;;24.00;52.90;;;;;;5076657;28;20032;-56
2021/04/24 01:11:06;;;;;;;22.67;7.15;;;23.90;52.90;;;;;;5076237;28;20462;-54
2021/04/24 01:13:32;;;;;;;14.20;5.95;;;23.90;53.00;;;;;;5076213;28;20424;-55
2021/04/24 01:15:58;;;;;;;20.63;6.88;;;23.90;53.00;;;;;;5076236;28;20028;-54
2021/04/24 01:18:24;;;;;;;21.35;6.72;;;23.90;53.00;;;;;;5076373;28;20020;-55
2021/04/24 01:20:52;;;;;;;15.30;6.28;;;23.90;53.00;;;;;;5076366;28;20055;-55
2021/04/24 01:23:19;;;;;;;17.60;5.75;;;23.90;53.10;;;;;;5075942;28;20040;-55
2021/04/24 01:25:45;;;;;;;18.20;5.60;;;23.90;53.10;;;;;;5076271;28;20040;-55
2021/04/24 01:28:12;;;;;;;17.60;5.82;;;23.90;53.10;;;;;;5058080;28;20028;-55
2021/04/24 01:30:42;;;;;;;13.07;4.85;;;23.90;53.20;;;;;;5075901;28;20081;-56
2021/04/24 01:33:09;;;;;;;14.00;6.15;;;23.90;53.10;;;;;;5076296;28;20032;-55
2021/04/24 01:35:37;;;;;;;13.27;5.65;;;23.90;53.10;;;;;;5076183;28;20379;-55
2021/04/24 01:38:04;;;;;;;14.52;5.93;;;23.90;53.10;;;;;;5075503;28;20028;-56
2021/04/24 01:40:32;;;;;;;11.45;5.30;;;23.90;53.10;;;;;;5075777;28;20048;-56
2021/04/24 01:42:58;;;;;;;19.30;6.90;;;23.90;53.20;;;;;;5057476;28;20037;-54
2021/04/24 01:45:26;;;;;;;24.88;6.60;;;23.90;53.20;;;;;;5075055;28;20024;-55
2021/04/24 01:47:53;;;;;;;23.42;6.60;;;23.90;53.10;;;;;;5075621;28;20040;-55
2021/04/24 01:50:23;;;;;;;16.95;6.55;;;23.90;53.00;;;;;;5075775;28;20500;-56
2021/04/24 01:52:51;;;;;;;20.60;6.45;;;23.90;53.00;;;;;;5075812;28;20105;-56
2021/04/24 01:55:24;;;;;;;22.65;7.35;;;23.90;53.00;;;;;;5075265;28;20021;-55
2021/04/24 01:57:52;;;;;;;18.75;7.70;;;23.80;52.90;;;;;;5075502;28;20047;-55
2021/04/24 02:00:36;;;;;;;29.20;8.32;;;23.90;52.90;;;;;;5075449;28;20541;-55
2021/04/24 02:03:06;;;;;;;23.77;7.63;;;23.80;52.80;;;;;;5057483;28;20032;-55
2021/04/24 02:05:33;;;;;;;23.80;9.07;;;23.80;53.40;;;;;;5075096;28;20028;-55
2021/04/24 02:08:11;;;;;;;21.25;8.15;;;23.80;52.90;;;;;;5075669;28;20035;-55
2021/04/24 02:10:38;;;;;;;22.80;9.30;;;23.80;53.00;;;;;;5075305;28;20024;-56
2021/04/24 02:13:08;;;;;;;20.75;8.57;;;23.80;52.80;;;;;;5075223;28;20086;-54
2021/04/24 02:15:34;;;;;;;21.95;9.50;;;23.70;52.80;;;;;;5074797;28;20028;-56
2021/04/24 02:18:01;;;;;;;19.08;8.27;;;23.80;53.00;;;;;;5075170;28;20080;-56
2021/04/24 02:20:27;;;;;;;19.50;8.50;;;23.70;52.90;;;;;;5056957;28;20043;-55
2021/04/24 02:22:54;;;;;;;16.33;7.80;;;23.80;53.10;;;;;;5074760;28;20466;-55
2021/04/24 02:25:21;;;;;;;21.27;8.23;;;23.80;53.10;;;;;;5074770;28;20069;-56
2021/04/24 02:27:48;;;;;;;24.67;8.55;;;23.80;53.20;;;;;;5057076;28;20025;-55
2021/04/24 02:30:17;;;;;;;19.48;8.63;;;23.80;53.20;;;;;;5074030;28;20090;-54
2021/04/24 02:32:44;;;;;;;21.05;8.73;;;23.80;53.20;;;;;;5057008;28;20036;-55
2021/04/24 02:35:13;;;;;;;18.88;8.63;;;23.80;53.20;;;;;;5074325;28;20075;-55
2021/04/24 02:37:39;;;;;;;18.80;7.95;;;23.80;53.20;;;;;;5074455;28;20043;-55
2021/04/24 02:40:09;;;;;;;17.55;8.65;;;23.80;53.20;;;;;;5040134;28;20037;-55
2021/04/24 02:42:35;;;;;;;21.07;8.67;;;23.80;53.10;;;;;;5074798;28;20127;-55
2021/04/24 02:45:05;;;;;;;19.05;7.82;;;23.80;53.10;;;;;;5074437;28;20104;-55
2021/04/24 02:47:33;;;;;;;17.63;9.00;;;23.80;53.10;;;;;;5074487;28;20131;-56
2021/04/24 02:50:01;;;;;;;21.05;8.77;;;23.80;53.00;;;;;;5074330;28;20025;-55
2021/04/24 02:52:27;;;;;;;20.55;8.32;;;23.80;53.00;;;;;;5056898;28;20036;-56
2021/04/24 02:54:54;;;;;;;19.90;8.70;;;23.90;53.00;;;;;;5074254;28;20104;-56
2021/04/24 02:57:20;;;;;;;22.38;8.43;;;23.80;53.50;;;;;;5074388;28;20532;-54
2021/04/24 02:59:46;;;;;;;16.65;8.35;;;23.90;53.00;;;;;;5056491;28;20037;-55
2021/04/24 03:02:15;;;;;;;18.50;8.00;;;23.90;52.90;;;;;;5074494;28;20024;-55
2021/04/24 03:04:41;;;;;;;17.95;8.60;;;23.90;52.80;;;;;;5074050;28;20380;-55
2021/04/24 03:07:07;;;;;;;15.82;8.10;;;23.90;52.80;;;;;;5074128;28;20159;-55
2021/04/24 03:09:33;;;;;;;17.50;7.75;;;23.90;52.80;;;;;;5073850;28;20570;-55
2021/04/24 03:11:59;;;;;;;17.80;9.15;;;23.90;52.90;;;;;;5074015;28;20030;-54
2021/04/24 03:14:25;;;;;;;19.15;8.13;;;23.90;52.90;;;;;;5073415;28;20020;-54
2021/04/24 03:16:51;;;;;;;17.33;7.90;;;23.90;52.80;;;;;;5073246;28;20482;-56
2021/04/24 03:19:17;;;;;;;19.85;8.88;;;23.90;52.80;;;;;;5073587;28;20047;-55
2021/04/24 03:21:43;;;;;;;16.35;8.60;;;23.90;52.80;;;;;;5073525;28;20225;-55
2021/04/24 03:24:10;;;;;;;15.80;8.95;;;23.90;52.70;;;;;;5055292;28;20123;-56
2021/04/24 03:26:36;;;;;;;18.83;7.75;;;23.90;52.70;;;;;;5072916;28;20025;-55
2021/04/24 03:29:02;;;;;;;14.82;7.47;;;23.80;52.70;;;;;;5073106;28;20025;-55
2021/04/24 03:31:28;;;;;;;19.80;8.88;;;23.90;52.70;;;;;;5073338;28;20082;-55
2021/04/24 03:33:54;;;;;;;18.02;8.60;;;23.90;52.80;;;;;;5073205;28;20697;-55
2021/04/24 03:36:20;;;;;;;16.98;8.05;;;23.90;52.80;;;;;;5073397;28;20122;-55
2021/04/24 03:38:46;;;;;;;17.67;7.90;;;23.90;52.80;;;;;;5073110;28;20032;-54
2021/04/24 03:41:12;;;;;;;19.50;8.13;;;23.90;53.40;;;;;;5073204;28;20035;-55
2021/04/24 03:43:38;;;;;;;13.15;8.27;;;23.90;52.80;;;;;;5073245;28;20024;-55
2021/04/24 03:46:04;;;;;;;19.85;8.50;;;23.90;52.80;;;;;;5073642;28;20028;-56
2021/04/24 03:48:31;;;;;;;16.73;8.32;;;23.90;52.80;;;;;;5055517;28;20024;-55
2021/04/24 03:50:57;;;;;;;15.85;8.07;;;23.90;52.80;;;;;;5073367;28;20141;-55
2021/04/24 03:53:23;;;;;;;14.57;7.22;;;23.90;52.70;;;;;;5073323;28;20378;-55
2021/04/24 03:55:49;;;;;;;22.42;8.57;;;23.90;52.70;;;;;;5055266;28;20032;-55
2021/04/24 03:58:15;;;;;;;20.05;8.30;;;23.90;52.70;;;;;;5073550;28;20029;-55
2021/04/24 04:00:41;;;;;;;15.45;7.85;;;23.90;52.70;;;;;;5073545;28;20386;-55
2021/04/24 04:03:09;;;;;;;16.88;8.30;;;23.90;52.70;;;;;;5055292;28;20032;-56
2021/04/24 04:05:36;;;;;;;17.58;8.38;;;23.90;52.70;;;;;;5073267;28;20090;-55
2021/04/24 04:08:03;;;;;;;22.20;9.27;;;23.90;52.70;;;;;;5073794;28;20108;-56
2021/04/24 04:10:30;;;;;;;16.48;7.80;;;23.90;52.70;;;;;;5073121;28;20029;-55
2021/04/24 04:12:57;;;;;;;14.73;8.10;;;23.90;52.70;;;;;;5073251;28;20029;-55
2021/04/24 04:15:25;;;;;;;13.63;7.28;;;23.90;52.70;;;;;;5073103;28;20078;-55
2021/04/24 04:17:57;;;;;;;19.83;8.70;;;23.90;52.70;;;;;;5072409;28;20032;-55
2021/04/24 04:20:23;;;;;;;17.77;8.75;;;23.90;52.70;;;;;;5073300;28;20064;-56
2021/04/24 04:22:49;;;;;;;20.63;9.65;;;24.00;52.70;;;;;;5072904;28;20389;-56
2021/04/24 04:25:16;;;;;;;20.70;9.55;;;23.90;52.70;;;;;;5072897;28;20032;-56
2021/04/24 04:27:43;;;;;;;17.02;8.38;;;24.00;52.80;;;;;;5055162;28;20044;-55
2021/04/24 04:30:11;;;;;;;17.70;9.15;;;23.90;52.70;;;;;;5072940;28;20016;-55
2021/04/24 04:32:37;;;;;;;16.02;8.70;;;23.90;52.70;;;;;;5038620;28;20036;-55
2021/04/24 04:35:05;;;;;;;16.10;8.48;;;24.00;52.70;;;;;;5072959;28;20521;-55
2021/04/24 04:37:31;;;;;;;15.30;8.15;;;23.90;52.70;;;;;;5073154;28;20024;-56
2021/04/24 04:39:58;;;;;;;17.40;8.18;;;24.00;52.80;;;;;;5072809;28;20078;-56
2021/04/24 04:42:24;;;;;;;18.08;7.95;;;24.00;52.70;;;;;;5076872;28;20029;-55
2021/04/24 04:44:50;;;;;;;20.17;7.80;;;23.90;52.70;;;;;;5077110;28;20521;-55
2021/04/24 04:47:16;;;;;;;20.60;7.65;;;24.00;52.70;;;;;;5076957;28;20032;-55
2021/04/24 04:49:42;;;;;;;13.45;7.40;;;24.00;52.70;;;;;;5077110;28;20028;-56
2021/04/24 04:52:08;;;;;;;18.10;8.25;;;23.90;52.70;;;;;;5076670;28;20025;-56
2021/04/24 04:54:35;;;;;;;15.43;7.32;;;24.00;52.70;;;;;;5076724;28;20032;-55
2021/04/24 04:57:01;;;;;;;16.15;7.30;;;23.90;52.70;;;;;;5076129;28;20470;-54
2021/04/24 04:59:28;;;;;;;16.35;7.72;;;24.00;52.70;;;;;;5075664;28;20024;-55
2021/04/24 05:01:58;;;;;;;20.60;7.60;;;24.00;52.70;;;;;;5057985;28;20043;-55
2021/04/24 05:04:24;;;;;;;15.55;8.05;;;23.90;52.70;;;;;;5076585;28;20024;-55
2021/04/24 05:06:50;;;;;;;15.73;7.70;;;24.00;52.70;;;;;;5076595;28;20028;-55
2021/04/24 05:09:22;;;;;;;22.02;8.13;;;24.00;52.70;;;;;;5075596;28;20052;-55
2021/04/24 05:11:49;;;;;;;16.27;7.82;;;24.00;52.70;;;;;;5075709;28;20135;-55
2021/04/24 05:14:16;;;;;;;15.48;6.78;;;24.00;52.70;;;;;;5075501;28;20024;-54
2021/04/24 05:16:43;;;;;;;18.10;7.15;;;24.00;52.70;;;;;;5075428;28;20024;-55
2021/04/24 05:19:10;;;;;;;17.25;7.00;;;24.00;52.70;;;;;;5075506;28;20032;-55
2021/04/24 05:21:37;;;;;;;13.57;5.80;;;24.00;52.80;;;;;;5075690;28;20020;-55
2021/04/24 05:24:04;;;;;;;13.13;5.47;;;24.00;52.60;;;;;;5075638;28;20040;-55
2021/04/24 05:26:30;;;;;;;14.73;5.95;;;23.90;52.50;;;;;;5075880;28;20039;-55
2021/04/24 05:28:56;;;;;;;17.55;6.10;;;24.00;52.60;;;;;;5057925;28;20113;-55
2021/04/24 05:31:23;;;;;;;18.40;7.03;;;23.90;52.60;;;;;;5057875;28;20043;-55
2021/04/24 05:33:49;;;;;;;13.70;5.70;;;23.90;52.50;;;;;;5076141;28;20033;-55
2021/04/24 05:36:16;;;;;;;16.60;5.70;;;23.90;52.60;;;;;;5075993;28;20032;-55
2021/04/24 05:38:42;;;;;;;17.63;5.88;;;23.90;52.60;;;;;;5076200;28;20086;-56
2021/04/24 05:41:11;;;;;;;17.27;5.10;;;23.90;52.60;;;;;;5075949;28;20035;-55
2021/04/24 05:43:38;;;;;;;16.30;6.13;;;23.90;52.60;;;;;;5076026;28;20033;-54
2021/04/24 05:46:04;;;;;;;15.25;5.72;;;23.80;52.60;;;;;;5076084;28;20021;-54
2021/04/24 05:48:31;;;;;;;18.23;6.35;;;23.90;52.70;;;;;;5075592;28;20037;-55
2021/04/24 05:50:57;;;;;;;15.43;5.90;;;23.90;52.80;;;;;;5075695;28;20074;-55
2021/04/24 05:53:23;;;;;;;16.58;6.40;;;23.90;52.70;;;;;;5075073;28;20112;-55
2021/04/24 05:55:50;;;;;;;14.68;5.70;;;23.90;52.70;;;;;;5075668;28;20052;-54
2021/04/24 05:58:16;;;;;;;16.27;5.18;;;23.80;52.70;;;;;;5075660;28;20438;-54
2021/04/24 06:00:42;;;;;;;19.45;5.30;;;23.80;52.70;;;;;;5075447;28;20021;-55
2021/04/24 06:03:08;;;;;;;22.40;5.70;;;23.80;52.60;;;;;;5074983;28;20036;-54
2021/04/24 06:05:34;;;;;;;14.82;5.38;;;23.80;52.60;;;;;;5063901;28;20016;-55
2021/04/24 06:07:59;;;;;;;19.15;5.72;;;23.80;52.70;;;;;;5073253;28;20374;-55
2021/04/24 06:10:26;;;;;;;17.98;5.75;;;23.80;53.30;;;;;;5075158;28;20116;-55
2021/04/24 06:12:52;;;;;;;15.27;6.07;;;23.80;52.70;;;;;;5075030;28;20111;-55
2021/04/24 06:15:23;;;;;;;16.60;5.75;;;23.80;52.80;;;;;;5057168;28;20051;-54
2021/04/24 06:17:50;;;;;;;15.60;5.43;;;23.80;52.80;;;;;;5075005;28;20032;-55
2021/04/24 06:20:17;;;;;;;16.42;5.65;;;23.80;52.80;;;;;;5075006;28;20025;-55
2021/04/24 06:22:45;;;;;;;15.23;5.03;;;23.70;52.70;;;;;;5047530;28;20536;-54
2021/04/24 06:25:16;;;;;;;19.05;5.25;;;23.50;52.60;;;;;;5066692;28;20078;-55
2021/04/24 06:27:42;;;;;;;14.77;5.15;;;23.70;52.70;;;;;;5074750;28;20089;-55
2021/04/24 06:30:11;;;;;;;15.15;5.53;;;23.80;52.80;;;;;;5056812;28;20116;-55
2021/04/24 06:32:37;;;;;;;15.88;5.00;;;23.70;52.70;;;;;;5074969;28;20526;-55
2021/04/24 06:35:05;;;;;;;13.98;5.18;;;23.80;52.70;;;;;;5074673;28;20032;-55
2021/04/24 06:37:31;;;;;;;16.95;5.50;;;23.70;52.70;;;;;;5074599;28;20107;-55
2021/04/24 06:39:57;;;;;;;24.55;6.65;;;23.80;52.70;;;;;;5057021;28;20024;-55
2021/04/24 06:42:24;;;;;;;15.55;5.22;;;23.80;52.70;;;;;;5074544;28;20033;-55
2021/04/24 06:44:50;;;;;;;18.50;6.38;;;23.70;52.60;;;;;;5074774;28;20025;-55
2021/04/24 06:47:16;;;;;;;18.00;5.65;;;23.70;52.50;;;;;;5065130;28;20033;-55
2021/04/24 06:49:42;;;;;;;19.35;6.63;;;23.70;52.40;;;;;;5055353;28;20033;-55
2021/04/24 06:52:08;;;;;;;17.08;6.10;;;23.80;52.50;;;;;;5054493;28;20032;-55
2021/04/24 06:54:35;;;;;;;18.45;6.53;;;23.70;52.50;;;;;;5054242;28;20024;-55
2021/04/24 06:57:02;;;;;;;20.88;6.13;;;23.70;52.40;;;;;;5054116;28;20032;-55
